Terminal Aerodrome Forecast
Issued by NWS Flagstaff, AZ

Home | Current Version | Previous Version | Text Only | Print | Product List | Glossary On
Versions: 1 2 3 4 5 6 7 8 9 10 11 12 13 14 15 16
000
FTUS45 KFGZ 040157 AAA
TAFINW
TAF AMD
KINW 040157Z 0402/0424 24008KT P6SM FEW100
     FM040300 VRB06KT P6SM SKC
     FM041900 25010G18KT P6SM FEW130=

USA.gov is the U.S. government's official web portal to all federal, state and local government web resources and services.